createdAt,value
2022-09-12T00:01:24.345Z,101563.78
2022-09-12T00:03:58.491Z,101565.69
2022-09-12T00:06:30.826Z,101558.91
2022-09-12T00:09:02.276Z,101556.47
2022-09-12T00:11:30.209Z,101559.28
2022-09-12T00:14:00.546Z,101559.44
2022-09-12T00:16:31.534Z,101549.09
2022-09-12T00:18:59.563Z,101546.53
2022-09-12T00:21:27.840Z,101538.81
2022-09-12T00:23:55.853Z,101547.66
2022-09-12T00:26:23.106Z,101548.66
2022-09-12T00:28:50.620Z,101542.72
2022-09-12T00:31:24.118Z,101541.97
2022-09-12T00:33:53.049Z,101543.84
2022-09-12T00:36:24.042Z,101533.47
2022-09-12T00:38:52.400Z,101532.63
2022-09-12T00:41:35.712Z,101523.97
2022-09-12T00:44:10.223Z,101527.63
2022-09-12T00:47:16.531Z,101517.34
2022-09-12T00:49:51.937Z,101518.38
2022-09-12T00:52:57.375Z,101518.53
2022-09-12T00:55:27.830Z,101519.59
2022-09-12T00:58:11.386Z,101511.94
2022-09-12T01:00:38.922Z,101511.09
2022-09-12T01:03:11.913Z,101512.13
2022-09-12T01:05:47.987Z,101500.81
2022-09-12T01:08:15.800Z,101499.13
2022-09-12T01:10:43.419Z,101495.63
2022-09-12T01:13:11.273Z,101500.22
2022-09-12T01:15:40.569Z,101495.97
2022-09-12T01:18:42.168Z,101504.84
2022-09-12T01:21:19.934Z,101502.28
2022-09-12T01:24:11.134Z,101496.31
2022-09-12T01:27:02.773Z,101494.66
2022-09-12T01:30:19.184Z,101497.44
2022-09-12T01:32:52.219Z,101495.75
2022-09-12T01:35:55.377Z,101488.00
2022-09-12T01:38:44.807Z,101487.34
2022-09-12T01:41:24.657Z,101491.00
2022-09-12T01:44:28.593Z,101492.78
2022-09-12T01:47:39.573Z,101484.09
2022-09-12T01:50:17.927Z,101484.44
2022-09-12T01:52:51.888Z,101471.38
2022-09-12T01:55:55.885Z,101468.81
2022-09-12T01:58:34.885Z,101470.72
2022-09-12T02:01:13.825Z,101466.53
2022-09-12T02:04:12.780Z,101460.59
2022-09-12T02:07:15.301Z,101452.03
2022-09-12T02:10:04.292Z,101453.06
2022-09-12T02:12:42.714Z,101452.19
2022-09-12T02:15:12.734Z,101446.13
2022-09-12T02:17:47.324Z,101450.63
2022-09-12T02:20:46.880Z,101447.25
2022-09-12T02:23:20.885Z,101450.72
2022-09-12T02:25:52.440Z,101437.56
2022-09-12T02:28:31.951Z,101434.09
2022-09-12T02:31:28.983Z,101435.03
2022-09-12T02:34:39.871Z,101434.28
2022-09-12T02:37:31.865Z,101443.94
2022-09-12T02:40:00.053Z,101438.75
2022-09-12T02:42:27.358Z,101439.63
2022-09-12T02:44:56.796Z,101442.34
2022-09-12T02:48:02.894Z,101441.47
2022-09-12T02:50:30.167Z,101440.53
2022-09-12T02:52:59.919Z,101450.22
2022-09-12T02:55:30.410Z,101443.25
2022-09-12T02:57:57.702Z,101440.72
2022-09-12T03:00:26.155Z,101439.03
2022-09-12T03:02:58.878Z,101441.75
2022-09-12T03:05:47.321Z,101437.41
2022-09-12T03:08:41.769Z,101429.75
2022-09-12T03:11:34.228Z,101435.78
2022-09-12T03:14:48.505Z,101427.13
2022-09-12T03:17:56.981Z,101420.16
2022-09-12T03:20:50.350Z,101421.19
2022-09-12T03:23:33.254Z,101416.03
2022-09-12T03:26:13.050Z,101417.19
2022-09-12T03:28:42.563Z,101414.47
2022-09-12T03:31:19.209Z,101412.69
2022-09-12T03:33:46.693Z,101411.94
2022-09-12T03:36:26.658Z,101414.47
2022-09-12T03:38:54.038Z,101402.25
2022-09-12T03:41:21.504Z,101410.94
2022-09-12T03:43:48.879Z,101400.31
2022-09-12T03:46:16.085Z,101401.09
2022-09-12T03:48:43.293Z,101408.72
2022-09-12T03:51:11.436Z,101412.97
2022-09-12T03:53:38.824Z,101407.72
2022-09-12T03:56:09.829Z,101409.31
2022-09-12T03:58:38.698Z,101404.13
2022-09-12T04:01:12.879Z,101408.47
2022-09-12T04:03:41.886Z,101409.38
2022-09-12T04:06:11.968Z,101406.84
2022-09-12T04:08:39.483Z,101390.97
2022-09-12T04:11:15.494Z,101402.44
2022-09-12T04:13:45.949Z,101398.94
2022-09-12T04:16:14.816Z,101387.66
2022-09-12T04:18:42.359Z,101397.34
2022-09-12T04:21:24.507Z,101389.53
2022-09-12T04:23:51.923Z,101387.84
2022-09-12T04:26:24.815Z,101392.09
2022-09-12T04:28:55.084Z,101390.38
2022-09-12T04:31:23.527Z,101384.19
2022-09-12T04:34:00.018Z,101394.63
2022-09-12T04:36:29.436Z,101380.69
2022-09-12T04:38:56.683Z,101375.34
2022-09-12T04:41:33.706Z,101375.44
2022-09-12T04:44:14.909Z,101376.22
2022-09-12T04:46:46.072Z,101376.97
2022-09-12T04:49:19.398Z,101379.59
2022-09-12T04:51:50.307Z,101374.25
2022-09-12T04:54:19.802Z,101379.53
2022-09-12T04:56:52.503Z,101377.63
2022-09-12T04:59:22.622Z,101380.19
2022-09-12T05:01:49.880Z,101375.75
2022-09-12T05:04:17.192Z,101377.47
2022-09-12T05:06:44.505Z,101376.53
2022-09-12T05:09:14.488Z,101375.59
2022-09-12T05:12:03.679Z,101372.13
2022-09-12T05:14:33.078Z,101377.22
2022-09-12T05:17:01.791Z,101383.22
2022-09-12T05:19:30.913Z,101389.44
2022-09-12T05:22:01.090Z,101382.38
2022-09-12T05:24:28.813Z,101388.50
2022-09-12T05:26:56.085Z,101379.66
2022-09-12T05:29:25.130Z,101374.41
2022-09-12T05:31:52.961Z,101378.75
2022-09-12T05:34:21.048Z,101377.78
2022-09-12T05:36:49.154Z,101378.75
2022-09-12T05:39:16.639Z,101379.66
2022-09-12T05:41:43.867Z,101381.53
2022-09-12T05:44:14.231Z,101388.56
2022-09-12T05:46:45.171Z,101382.47
2022-09-12T05:49:13.760Z,101381.53
2022-09-12T05:51:45.190Z,101382.38
2022-09-12T05:54:17.826Z,101386.72
2022-09-12T05:56:46.001Z,101381.28
2022-09-12T05:59:20.393Z,101385.78
2022-09-12T06:01:48.837Z,101382.88
2022-09-12T06:04:16.790Z,101393.34
2022-09-12T06:06:45.641Z,101389.00
2022-09-12T06:09:15.977Z,101400.97
2022-09-12T06:11:45.192Z,101403.53
2022-09-12T06:14:17.368Z,101404.41
2022-09-12T06:16:45.159Z,101408.72
2022-09-12T06:19:27.763Z,101405.16
2022-09-12T06:21:55.410Z,101398.00
2022-09-12T06:24:23.081Z,101396.25
2022-09-12T06:26:52.784Z,101393.53
2022-09-12T06:29:20.205Z,101404.88
2022-09-12T06:31:49.880Z,101398.78
2022-09-12T06:34:17.208Z,101389.94
2022-09-12T06:36:48.131Z,101392.75
2022-09-12T06:39:22.268Z,101392.06
2022-09-12T06:41:51.693Z,101387.06
2022-09-12T06:44:22.479Z,101390.63
2022-09-12T06:46:50.547Z,101394.28
2022-09-12T06:49:18.161Z,101392.56
2022-09-12T06:51:45.461Z,101394.34
2022-09-12T06:54:15.625Z,101396.03
2022-09-12T06:56:43.026Z,101396.91
2022-09-12T06:59:10.435Z,101389.72
2022-09-12T07:01:37.930Z,101385.09
2022-09-12T07:04:05.852Z,101388.06
2022-09-12T07:06:40.590Z,101394.50
2022-09-12T07:09:12.293Z,101391.25
2022-09-12T07:11:41.949Z,101390.63
2022-09-12T07:14:12.919Z,101379.53
2022-09-12T07:16:40.629Z,101381.44
2022-09-12T07:19:09.042Z,101383.53
2022-09-12T07:21:39.993Z,101370.56
2022-09-12T07:24:10.396Z,101364.91
2022-09-12T07:26:40.355Z,101375.00
2022-09-12T07:29:40.765Z,101366.91
2022-09-12T07:32:01.793Z,101372.53
2022-09-12T07:34:29.075Z,101363.28
2022-09-12T07:36:56.312Z,101368.09
2022-09-12T07:39:23.500Z,101377.34
2022-09-12T07:41:50.752Z,101376.84
2022-09-12T07:44:18.118Z,101381.66
2022-09-12T07:46:45.310Z,101383.91
2022-09-12T07:49:12.749Z,101382.66
2022-09-12T07:51:40.505Z,101377.84
2022-09-12T07:54:09.470Z,101373.97
2022-09-12T07:56:39.177Z,101381.59
2022-09-12T07:59:09.644Z,101379.28
2022-09-12T08:01:37.150Z,101380.69
2022-09-12T08:04:05.203Z,101381.22
2022-09-12T08:06:36.144Z,101386.13
2022-09-12T08:09:05.053Z,101384.00
2022-09-12T08:11:32.395Z,101392.28
2022-09-12T08:14:01.784Z,101395.38
2022-09-12T08:16:31.451Z,101380.81
2022-09-12T08:19:01.838Z,101390.78
2022-09-12T08:21:32.642Z,101388.69
2022-09-12T08:24:05.942Z,101381.06
2022-09-12T08:26:34.873Z,101385.84
2022-09-12T08:29:04.244Z,101390.38
2022-09-12T08:31:36.975Z,101385.31
2022-09-12T08:34:06.194Z,101389.97
2022-09-12T08:36:34.464Z,101395.25
2022-09-12T08:39:06.640Z,101398.63
2022-09-12T08:41:43.511Z,101398.44
2022-09-12T08:44:36.240Z,101399.91
2022-09-12T08:47:37.433Z,101396.72
2022-09-12T08:50:14.767Z,101389.91
2022-09-12T08:53:04.892Z,101388.53
2022-09-12T08:56:11.442Z,101391.47
2022-09-12T08:58:45.137Z,101387.59
2022-09-12T09:01:30.736Z,101389.78
2022-09-12T09:04:45.784Z,101396.13
2022-09-12T09:07:48.258Z,101385.81
2022-09-12T09:10:36.605Z,101388.72
2022-09-12T09:13:39.758Z,101390.59
2022-09-12T09:16:21.491Z,101383.78
2022-09-12T09:18:50.647Z,101385.75
2022-09-12T09:21:26.712Z,101380.72
2022-09-12T09:24:04.087Z,101389.03
2022-09-12T09:26:50.101Z,101380.38
2022-09-12T09:29:27.061Z,101373.56
2022-09-12T09:32:00.348Z,101372.78
2022-09-12T09:34:34.342Z,101372.78
2022-09-12T09:37:15.303Z,101369.19
2022-09-12T09:40:19.602Z,101363.91
2022-09-12T09:43:15.198Z,101371.50
2022-09-12T09:45:45.791Z,101360.63
2022-09-12T09:48:31.545Z,101355.91
2022-09-12T09:51:05.404Z,101363.63
2022-09-12T09:53:50.806Z,101357.44
2022-09-12T09:56:30.696Z,101344.25
2022-09-12T09:59:08.222Z,101342.66
2022-09-12T10:01:35.609Z,101344.69
2022-09-12T10:04:03.942Z,101342.09
2022-09-12T10:06:37.974Z,101334.34
2022-09-12T10:09:24.903Z,101330.91
2022-09-12T10:11:55.555Z,101337.59
2022-09-12T10:14:41.177Z,101332.81
2022-09-12T10:17:34.533Z,101323.34
2022-09-12T10:20:21.584Z,101322.63
2022-09-12T10:22:49.812Z,101325.50
2022-09-12T10:25:19.735Z,101330.03
2022-09-12T10:28:21.103Z,101323.59
2022-09-12T10:30:56.042Z,101312.97
2022-09-12T10:33:26.407Z,101300.91
2022-09-12T10:35:55.215Z,101304.75
2022-09-12T10:38:29.038Z,101304.94
2022-09-12T10:41:11.435Z,101299.72
2022-09-12T10:43:41.512Z,101301.06
2022-09-12T10:46:15.653Z,101296.50
2022-09-12T10:48:51.518Z,101293.59
2022-09-12T10:51:24.648Z,101280.00
2022-09-12T10:54:04.702Z,101282.66
2022-09-12T10:56:38.843Z,101282.28
2022-09-12T10:59:34.829Z,101284.16
2022-09-12T11:03:00.677Z,101280.63
2022-09-12T11:05:49.044Z,101273.69
2022-09-12T11:08:37.356Z,101264.19
2022-09-12T11:11:45.440Z,101263.56
2022-09-12T11:15:23.701Z,101259.09
2022-09-12T11:18:27.143Z,101253.25
2022-09-12T11:21:15.001Z,101249.31
2022-09-12T11:24:09.670Z,101239.31
2022-09-12T11:27:01.398Z,101246.97
2022-09-12T11:29:52.667Z,101246.72
2022-09-12T11:32:59.972Z,101251.63
2022-09-12T11:35:33.783Z,101244.78
2022-09-12T11:38:34.138Z,101239.75
2022-09-12T11:41:08.337Z,101248.44
2022-09-12T11:43:59.149Z,101245.06
2022-09-12T11:46:37.345Z,101248.53
2022-09-12T11:49:13.520Z,101242.16
2022-09-12T11:52:13.985Z,101246.66
2022-09-12T11:54:53.874Z,101247.47
2022-09-12T11:57:25.595Z,101250.00
2022-09-12T11:59:59.675Z,101251.16
2022-09-12T12:02:30.545Z,101241.75
2022-09-12T12:05:22.298Z,101244.09
2022-09-12T12:08:01.934Z,101235.41
2022-09-12T12:10:53.924Z,101240.63
2022-09-12T12:13:39.966Z,101234.44
2022-09-12T12:16:38.036Z,101223.06
2022-09-12T12:19:37.702Z,101230.59
2022-09-12T12:22:19.209Z,101232.59
2022-09-12T12:25:08.202Z,101229.25
2022-09-12T12:27:44.556Z,101223.56
2022-09-12T12:30:29.753Z,101232.28
2022-09-12T12:33:10.241Z,101218.25
2022-09-12T12:35:41.550Z,101226.78
2022-09-12T12:38:35.480Z,101224.75
2022-09-12T12:41:18.137Z,101218.41
2022-09-12T12:43:49.286Z,101223.16
2022-09-12T12:46:18.869Z,101212.25
2022-09-12T12:49:26.891Z,101206.06
2022-09-12T12:51:53.958Z,101211.44
2022-09-12T12:54:40.268Z,101209.25
2022-09-12T12:57:13.389Z,101202.56
2022-09-12T12:59:58.129Z,101193.88
2022-09-12T13:02:50.380Z,101198.34
2022-09-12T13:05:24.561Z,101191.00
2022-09-12T13:08:06.651Z,101182.81
2022-09-12T13:10:34.623Z,101181.78
2022-09-12T13:13:06.410Z,101192.34
2022-09-12T13:15:36.763Z,101180.94
2022-09-12T13:18:29.189Z,101175.09
2022-09-12T13:21:21.571Z,101172.88
2022-09-12T13:24:12.714Z,101165.84
2022-09-12T13:26:50.157Z,101169.31
2022-09-12T13:29:26.483Z,101167.00
2022-09-12T13:32:00.760Z,101154.59
2022-09-12T13:34:42.638Z,101150.22
2022-09-12T13:37:37.946Z,101149.19
2022-09-12T13:40:29.125Z,101152.03
2022-09-12T13:43:31.801Z,101145.00
2022-09-12T13:45:59.173Z,101144.19
2022-09-12T13:48:26.723Z,101147.84
2022-09-12T13:51:00.958Z,101143.22
2022-09-12T13:53:44.702Z,101129.59
2022-09-12T13:56:21.086Z,101132.16
2022-09-12T13:58:57.856Z,101130.63
2022-09-12T14:01:41.676Z,101129.63
2022-09-12T14:04:45.438Z,101118.56
2022-09-12T14:07:25.822Z,101111.16
2022-09-12T14:09:59.596Z,101109.66
2022-09-12T14:12:32.456Z,101114.84
2022-09-12T14:15:00.702Z,101110.41
2022-09-12T14:17:33.875Z,101104.41
2022-09-12T14:20:08.864Z,101113.09
2022-09-12T14:22:36.551Z,101106.56
2022-09-12T14:25:05.145Z,101107.63
2022-09-12T14:27:45.616Z,101106.97
2022-09-12T14:30:23.221Z,101111.72
2022-09-12T14:33:12.249Z,101101.47
2022-09-12T14:36:30.427Z,101103.28
2022-09-12T14:39:06.059Z,101097.28
2022-09-12T14:41:39.695Z,101089.56
2022-09-12T14:44:19.318Z,101082.16
2022-09-12T14:46:48.545Z,101077.09
2022-09-12T14:49:31.441Z,101074.63
2022-09-12T14:52:02.519Z,101069.69
2022-09-12T14:54:30.318Z,101062.84
2022-09-12T14:57:00.960Z,101055.28
2022-09-12T14:59:37.126Z,101061.38
2022-09-12T15:02:19.994Z,101055.69
2022-09-12T15:04:51.100Z,101066.19
2022-09-12T15:07:48.051Z,101063.03
2022-09-12T15:10:24.109Z,101064.13
2022-09-12T15:13:25.965Z,101060.06
2022-09-12T15:16:03.881Z,101057.09
2022-09-12T15:18:31.177Z,101052.69
2022-09-12T15:21:10.748Z,101045.84
2022-09-12T15:23:47.112Z,101049.38
2022-09-12T15:26:24.112Z,101061.63
2022-09-12T15:28:52.157Z,101060.22
2022-09-12T15:31:30.468Z,101052.72
2022-09-12T15:34:01.236Z,101052.91
2022-09-12T15:36:29.130Z,101048.34
2022-09-12T15:38:56.672Z,101051.03
2022-09-12T15:41:32.667Z,101033.50
2022-09-12T15:43:59.942Z,101034.94
2022-09-12T15:46:27.146Z,101020.53
2022-09-12T15:48:54.482Z,101035.16
2022-09-12T15:51:22.375Z,101037.31
2022-09-12T15:53:51.345Z,101040.91
2022-09-12T15:56:21.728Z,101036.53
2022-09-12T15:58:58.915Z,101031.94
2022-09-12T16:01:29.238Z,101033.19
2022-09-12T16:03:57.357Z,101028.84
2022-09-12T16:06:24.669Z,101016.88
2022-09-12T16:08:52.019Z,101011.63
2022-09-12T16:11:23.291Z,101010.84
2022-09-12T16:13:53.099Z,101009.81
2022-09-12T16:16:20.482Z,100999.63
2022-09-12T16:18:50.385Z,101005.88
2022-09-12T16:21:17.894Z,101006.59
2022-09-12T16:23:47.143Z,101005.81
2022-09-12T16:26:15.285Z,101005.19
2022-09-12T16:28:42.960Z,101000.84
2022-09-12T16:31:13.924Z,101003.25
2022-09-12T16:33:42.307Z,101003.13
2022-09-12T16:36:15.181Z,100997.38
2022-09-12T16:38:44.457Z,100989.97
2022-09-12T16:41:13.099Z,100983.03
2022-09-12T16:43:41.370Z,100987.66
2022-09-12T16:46:19.782Z,100985.03
2022-09-12T16:48:52.448Z,100985.94
2022-09-12T16:51:23.949Z,100980.28
2022-09-12T16:53:51.170Z,100990.56
2022-09-12T16:56:18.902Z,100985.03
2022-09-12T16:58:46.605Z,100982.72
2022-09-12T17:01:21.142Z,100974.03
2022-09-12T17:03:52.991Z,100983.06
2022-09-12T17:06:20.581Z,100984.06
2022-09-12T17:08:50.987Z,100986.06
2022-09-12T17:11:22.261Z,100975.88
2022-09-12T17:14:04.325Z,100969.03
2022-09-12T17:16:42.536Z,100957.97
2022-09-12T17:19:29.632Z,100950.63
2022-09-12T17:21:58.156Z,100944.25
2022-09-12T17:24:26.081Z,100949.41
2022-09-12T17:26:54.003Z,100946.56
2022-09-12T17:29:21.344Z,100940.06
2022-09-12T17:31:48.833Z,100936.22
2022-09-12T17:34:16.349Z,100927.00
2022-09-12T17:36:45.956Z,100930.16
2022-09-12T17:39:14.166Z,100929.84
2022-09-12T17:41:42.859Z,100924.81
2022-09-12T17:44:13.437Z,100922.63
2022-09-12T17:46:41.659Z,100916.78
2022-09-12T17:49:16.652Z,100927.28
2022-09-12T17:51:45.045Z,100929.63
2022-09-12T17:54:17.922Z,100934.63
2022-09-12T17:56:47.307Z,100928.06
2022-09-12T17:59:18.661Z,100928.53
2022-09-12T18:02:04.718Z,100923.84
2022-09-12T18:04:32.588Z,100921.97
2022-09-12T18:07:00.414Z,100929.97
2022-09-12T18:09:28.587Z,100944.94
2022-09-12T18:11:56.473Z,100942.75
2022-09-12T18:14:26.185Z,100948.56
2022-09-12T18:16:53.641Z,100939.75
2022-09-12T18:19:20.790Z,100936.53
2022-09-12T18:21:48.052Z,100938.69
2022-09-12T18:24:15.787Z,100942.66
2022-09-12T18:26:43.974Z,100941.16
2022-09-12T18:29:12.443Z,100954.28
2022-09-12T18:31:39.688Z,100946.78
2022-09-12T18:34:12.519Z,100949.06
2022-09-12T18:36:46.786Z,100949.66
2022-09-12T18:39:14.669Z,100953.81
2022-09-12T18:41:42.036Z,100944.59
2022-09-12T18:44:11.769Z,100954.91
2022-09-12T18:46:38.982Z,100966.19
2022-09-12T18:49:07.448Z,100962.31
2022-09-12T18:51:36.912Z,100963.06
2022-09-12T18:54:08.707Z,100965.38
2022-09-12T18:56:38.445Z,100957.81
2022-09-12T18:59:07.437Z,100966.28
2022-09-12T19:01:38.209Z,100958.91
2022-09-12T19:04:07.661Z,100967.34
2022-09-12T19:06:39.500Z,100960.13
2022-09-12T19:09:09.005Z,100959.03
2022-09-12T19:11:39.677Z,100949.09
2022-09-12T19:14:07.900Z,100940.47
2022-09-12T19:16:35.472Z,100942.06
2022-09-12T19:19:03.158Z,100938.75
2022-09-12T19:21:32.077Z,100926.47
2022-09-12T19:24:03.511Z,100923.06
2022-09-12T19:26:30.947Z,100915.09
2022-09-12T19:28:59.063Z,100917.66
2022-09-12T19:31:26.728Z,100911.22
2022-09-12T19:33:58.469Z,100913.63
2022-09-12T19:36:44.263Z,100919.53
2022-09-12T19:39:11.884Z,100912.28
2022-09-12T19:41:39.225Z,100907.38
2022-09-12T19:44:06.562Z,100900.66
2022-09-12T19:46:34.042Z,100905.59
2022-09-12T19:49:01.366Z,100913.31
2022-09-12T19:51:28.607Z,100917.25
2022-09-12T19:53:56.203Z,100907.03
2022-09-12T19:56:23.534Z,100916.28
2022-09-12T19:58:55.302Z,100912.25
2022-09-12T20:01:28.207Z,100911.66
2022-09-12T20:03:57.993Z,100908.31
2022-09-12T20:06:26.137Z,100911.25
2022-09-12T20:08:53.756Z,100898.94
2022-09-12T20:11:23.626Z,100893.91
2022-09-12T20:13:51.632Z,100895.19
2022-09-12T20:16:29.164Z,100893.78
2022-09-12T20:19:09.579Z,100883.56
2022-09-12T20:21:37.139Z,100891.00
2022-09-12T20:24:11.989Z,100877.13
2022-09-12T20:26:40.508Z,100887.19
2022-09-12T20:29:08.715Z,100880.50
2022-09-12T20:31:38.652Z,100876.28
2022-09-12T20:34:06.871Z,100868.59
2022-09-12T20:36:34.528Z,100885.66
2022-09-12T20:39:03.647Z,100875.31
2022-09-12T20:41:35.829Z,100880.91
2022-09-12T20:44:03.588Z,100875.03
2022-09-12T20:46:30.886Z,100871.81
2022-09-12T20:48:58.705Z,100867.75
2022-09-12T20:51:27.216Z,100867.34
2022-09-12T20:53:55.815Z,100864.38
2022-09-12T20:56:26.627Z,100863.00
2022-09-12T20:58:55.696Z,100865.81
2022-09-12T21:01:23.307Z,100868.59
2022-09-12T21:03:50.774Z,100867.72
2022-09-12T21:06:21.454Z,100859.75
2022-09-12T21:08:50.262Z,100874.88
2022-09-12T21:11:19.562Z,100877.66
2022-09-12T21:13:47.109Z,100884.09
2022-09-12T21:16:20.299Z,100871.66
2022-09-12T21:18:57.171Z,100860.31
2022-09-12T21:21:24.886Z,100868.44
2022-09-12T21:23:54.071Z,100871.22
2022-09-12T21:26:21.480Z,100872.34
2022-09-12T21:28:48.776Z,100872.50
2022-09-12T21:31:17.782Z,100888.44
2022-09-12T21:33:45.011Z,100894.44
2022-09-12T21:36:12.291Z,100890.66
2022-09-12T21:38:39.584Z,100886.19
2022-09-12T21:41:14.379Z,100891.50
2022-09-12T21:43:43.534Z,100891.50
2022-09-12T21:46:12.139Z,100886.19
2022-09-12T21:48:39.429Z,100885.22
2022-09-12T21:51:07.164Z,100883.41
2022-09-12T21:53:34.393Z,100884.22
2022-09-12T21:56:07.084Z,100886.75
2022-09-12T21:58:35.496Z,100898.09
2022-09-12T22:01:04.850Z,100899.75
2022-09-12T22:03:32.132Z,100901.16
2022-09-12T22:06:06.039Z,100899.19
2022-09-12T22:08:37.573Z,100911.38
2022-09-12T22:11:09.617Z,100914.03
2022-09-12T22:13:39.621Z,100907.91
2022-09-12T22:16:07.606Z,100899.91
2022-09-12T22:18:36.319Z,100905.09
2022-09-12T22:21:12.462Z,100907.47
2022-09-12T22:23:58.497Z,100912.66
2022-09-12T22:26:27.381Z,100905.25
2022-09-12T22:28:54.790Z,100899.66
2022-09-12T22:31:22.634Z,100896.84
2022-09-12T22:33:51.457Z,100898.41
2022-09-12T22:36:18.677Z,100886.63
2022-09-12T22:38:45.956Z,100881.31
2022-09-12T22:41:13.422Z,100878.78
2022-09-12T22:43:40.954Z,100875.31
2022-09-12T22:46:10.900Z,100874.63
2022-09-12T22:48:38.478Z,100881.88
2022-09-12T22:51:06.397Z,100880.06
2022-09-12T22:53:34.958Z,100879.22
2022-09-12T22:56:03.944Z,100876.56
2022-09-12T22:58:32.760Z,100866.78
2022-09-12T23:01:00.041Z,100860.63
2022-09-12T23:03:27.401Z,100862.31
2022-09-12T23:05:54.660Z,100870.28
2022-09-12T23:08:21.927Z,100865.78
2022-09-12T23:10:49.125Z,100863.13
2022-09-12T23:13:16.922Z,100870.13
2022-09-12T23:15:44.167Z,100857.81
2022-09-12T23:18:11.414Z,100851.81
2022-09-12T23:20:38.566Z,100851.97
2022-09-12T23:23:05.776Z,100846.78
2022-09-12T23:25:33.086Z,100840.91
2022-09-12T23:28:00.249Z,100830.00
2022-09-12T23:30:27.566Z,100827.75
2022-09-12T23:32:56.273Z,100832.66
2022-09-12T23:35:23.464Z,100835.59
2022-09-12T23:37:50.653Z,100826.94
2022-09-12T23:40:20.728Z,100820.06
2022-09-12T23:42:50.474Z,100823.00
2022-09-12T23:45:17.753Z,100817.13
2022-09-12T23:47:44.961Z,100820.19
2022-09-12T23:50:12.125Z,100822.28
2022-09-12T23:52:39.320Z,100817.09
2022-09-12T23:55:07.426Z,100815.59
2022-09-12T23:57:34.586Z,100820.75
